createdAt,value
2022-08-01T00:01:47.780Z,19.57
2022-08-01T00:06:55.636Z,19.57
2022-08-01T00:12:02.808Z,19.66
2022-08-01T00:17:11.000Z,19.76
2022-08-01T00:22:19.607Z,19.67
2022-08-01T00:27:27.325Z,19.57
2022-08-01T00:32:34.810Z,19.53
2022-08-01T00:37:41.419Z,19.51
2022-08-01T00:42:49.812Z,19.51
2022-08-01T00:48:02.169Z,19.52
2022-08-01T00:53:08.729Z,19.5
2022-08-01T00:58:16.075Z,19.6
2022-08-01T01:03:23.125Z,19.62
2022-08-01T01:08:31.813Z,19.61
2022-08-01T01:13:39.982Z,19.62
2022-08-01T01:18:48.531Z,19.54
2022-08-01T01:23:55.327Z,19.56
2022-08-01T01:29:03.653Z,19.67
2022-08-01T01:34:10.841Z,19.7
2022-08-01T01:39:18.055Z,20.1
2022-08-01T01:44:25.817Z,20.31
2022-08-01T01:49:32.403Z,20.2
2022-08-01T01:54:41.172Z,19.99
2022-08-01T01:59:48.800Z,19.88
2022-08-01T02:04:56.800Z,19.8
2022-08-01T02:10:04.601Z,19.67
2022-08-01T02:15:12.418Z,19.6
2022-08-01T02:20:25.218Z,19.56
2022-08-01T02:25:33.159Z,19.53
2022-08-01T02:30:40.161Z,19.49
2022-08-01T02:35:47.438Z,19.47
2022-08-01T02:41:03.454Z,19.47
2022-08-01T02:46:11.709Z,19.52
2022-08-01T02:51:19.130Z,19.58
2022-08-01T02:56:27.127Z,19.59
2022-08-01T03:01:35.309Z,19.58
2022-08-01T03:06:41.532Z,19.72
2022-08-01T03:11:49.196Z,19.88
2022-08-01T03:16:55.952Z,19.81
2022-08-01T03:22:03.713Z,19.68
2022-08-01T03:27:11.350Z,19.62
2022-08-01T03:32:18.139Z,19.54
2022-08-01T03:37:25.978Z,19.4
2022-08-01T03:42:33.217Z,19.39
2022-08-01T03:47:40.561Z,19.44
2022-08-01T03:52:48.756Z,19.51
2022-08-01T03:57:57.649Z,19.52
2022-08-01T04:03:05.272Z,19.47
2022-08-01T04:08:14.044Z,19.44
2022-08-01T04:13:22.005Z,19.49
2022-08-01T04:18:30.013Z,19.56
2022-08-01T04:23:37.851Z,19.59
2022-08-01T04:28:46.843Z,19.62
2022-08-01T04:33:54.139Z,19.66
2022-08-01T04:39:02.308Z,19.72
2022-08-01T04:44:10.580Z,19.78
2022-08-01T04:49:18.882Z,19.86
2022-08-01T04:54:26.130Z,19.94
2022-08-01T04:59:33.335Z,20.03
2022-08-01T05:04:40.729Z,20.1
2022-08-01T05:09:49.404Z,20.21
2022-08-01T05:14:55.691Z,20.23
2022-08-01T05:20:02.434Z,20.36
2022-08-01T05:25:09.712Z,20.46
2022-08-01T05:30:17.249Z,20.49
2022-08-01T05:35:25.045Z,20.52
2022-08-01T05:40:32.245Z,20.54
2022-08-01T05:45:40.791Z,20.76
2022-08-01T05:50:48.501Z,21.15
2022-08-01T05:55:56.383Z,21.49
2022-08-01T06:01:02.943Z,21.6
2022-08-01T06:06:11.449Z,21.68
2022-08-01T06:11:19.389Z,21.72
2022-08-01T06:16:27.731Z,21.71
2022-08-01T06:21:50.840Z,22.02
2022-08-01T06:26:59.273Z,21.92
2022-08-01T06:32:06.127Z,21.73
2022-08-01T06:37:13.841Z,21.62
2022-08-01T06:42:21.108Z,21.6
2022-08-01T06:47:27.669Z,21.64
2022-08-01T06:52:37.073Z,21.7
2022-08-01T06:57:44.053Z,21.66
2022-08-01T07:02:51.920Z,21.61
2022-08-01T07:08:00.132Z,21.7
2022-08-01T07:13:06.841Z,21.81
2022-08-01T07:18:14.932Z,22.06
2022-08-01T07:23:22.458Z,22.35
2022-08-01T07:28:29.386Z,22.75
2022-08-01T07:33:38.652Z,23.36
2022-08-01T07:38:45.363Z,23.72
2022-08-01T07:43:52.812Z,24.01
2022-08-01T07:48:59.747Z,24.58
2022-08-01T07:54:06.295Z,25.36
2022-08-01T07:59:14.118Z,25.96
2022-08-01T08:04:22.349Z,25.76
2022-08-01T08:09:30.699Z,25.71
2022-08-01T08:14:38.805Z,25.51
2022-08-01T08:19:46.445Z,25.94
2022-08-01T08:24:54.866Z,27.03
2022-08-01T08:30:02.469Z,27.76
2022-08-01T08:35:11.159Z,27.57
2022-08-01T08:41:50.315Z,27.85
2022-08-01T08:46:56.856Z,28.06
2022-08-01T08:52:04.098Z,28.26
2022-08-01T08:57:11.981Z,28.93
2022-08-01T09:02:19.604Z,29.62
2022-08-01T09:07:26.943Z,30.4
2022-08-01T09:12:34.156Z,31.72
2022-08-01T09:17:40.701Z,30.64
2022-08-01T09:22:48.541Z,29.97
2022-08-01T09:27:56.890Z,29.78
2022-08-01T09:33:04.245Z,28.46
2022-08-01T09:38:11.662Z,27.47
2022-08-01T09:43:20.474Z,26.7
2022-08-01T09:48:27.738Z,26.76
2022-08-01T09:53:37.371Z,29.25
2022-08-01T09:58:44.728Z,31.23
2022-08-01T10:03:51.932Z,30.02
2022-08-01T10:08:59.772Z,28.86
2022-08-01T10:14:06.729Z,28.88
2022-08-01T10:19:14.709Z,29.62
2022-08-01T10:24:22.658Z,30.99
2022-08-01T10:29:29.815Z,30.57
2022-08-01T10:34:36.708Z,29.52
2022-08-01T10:39:44.395Z,28.16
2022-08-01T10:44:52.058Z,27.39
2022-08-01T10:49:59.681Z,27.02
2022-08-01T10:55:08.245Z,26.84
2022-08-01T11:00:15.785Z,26.92
2022-08-01T11:05:23.613Z,26.8
2022-08-01T11:10:30.822Z,26.28
2022-08-01T11:15:38.413Z,25.54
2022-08-01T11:20:46.313Z,24.98
2022-08-01T11:25:52.894Z,24.38
2022-08-01T11:31:00.702Z,24.03
2022-08-01T11:36:11.090Z,23.83
2022-08-01T11:41:19.284Z,23.8
2022-08-01T11:46:26.951Z,24.1
2022-08-01T11:51:34.966Z,24.34
2022-08-01T11:56:42.640Z,24.69
2022-08-01T12:01:50.295Z,25.08
2022-08-01T12:06:57.758Z,25.08
2022-08-01T12:12:05.116Z,25.65
2022-08-01T12:17:13.083Z,25.01
2022-08-01T12:22:19.952Z,24.49
2022-08-01T12:27:28.160Z,24.39
2022-08-01T12:32:36.147Z,24.48
2022-08-01T12:37:45.047Z,24.57
2022-08-01T12:42:53.521Z,24.84
2022-08-01T12:48:01.368Z,24.82
2022-08-01T12:53:08.057Z,24.89
2022-08-01T12:58:15.808Z,26.08
2022-08-01T13:03:24.025Z,27.04
2022-08-01T13:08:30.903Z,29.48
2022-08-01T13:13:38.137Z,31.1
2022-08-01T13:18:46.571Z,31.84
2022-08-01T13:23:54.958Z,31.64
2022-08-01T13:29:02.943Z,32.99
2022-08-01T13:34:10.178Z,29.79
2022-08-01T13:39:17.551Z,28.08
2022-08-01T13:44:25.120Z,27.82
2022-08-01T13:49:31.759Z,31.62
2022-08-01T13:54:39.574Z,32.88
2022-08-01T13:59:46.873Z,34.02
2022-08-01T14:04:54.485Z,34.95
2022-08-01T14:10:03.087Z,34.85
2022-08-01T14:15:09.655Z,35.52
2022-08-01T14:20:16.942Z,35.64
2022-08-01T14:25:24.729Z,35.65
2022-08-01T14:30:32.204Z,35.66
2022-08-01T14:35:39.701Z,36.34
2022-08-01T14:40:48.094Z,35.67
2022-08-01T14:45:56.500Z,36.34
2022-08-01T14:51:04.536Z,34.25
2022-08-01T14:56:11.701Z,31.78
2022-08-01T15:01:18.952Z,30.23
2022-08-01T15:06:26.776Z,31.96
2022-08-01T15:11:34.570Z,31.66
2022-08-01T15:16:41.694Z,31.32
2022-08-01T15:21:49.451Z,30.85
2022-08-01T15:26:56.943Z,29.52
2022-08-01T15:32:04.523Z,28.44
2022-08-01T16:03:28.987Z,26.51
2022-08-01T16:08:34.405Z,26.25
2022-08-01T16:13:42.005Z,26.19
2022-08-01T16:18:49.162Z,25.93
2022-08-01T16:23:55.772Z,25.48
2022-08-01T16:29:03.850Z,25.81
2022-08-01T16:34:11.863Z,26.83
2022-08-01T16:39:19.907Z,27.3
2022-08-01T16:44:26.488Z,27.6
2022-08-01T16:49:35.601Z,27.31
2022-08-01T16:54:43.413Z,27.21
2022-08-01T16:59:51.641Z,26.81
2022-08-01T17:04:58.463Z,26.39
2022-08-01T17:10:05.651Z,25.47
2022-08-01T17:15:13.548Z,24.7
2022-08-01T17:20:21.216Z,24.18
2022-08-01T17:25:28.915Z,23.72
2022-08-01T17:30:36.986Z,23.3
2022-08-01T17:35:45.147Z,23.02
2022-08-01T17:40:52.062Z,22.9
2022-08-01T17:46:00.699Z,22.92
2022-08-01T17:51:08.337Z,22.92
2022-08-01T17:56:16.275Z,22.74
2022-08-01T18:01:24.565Z,22.54
2022-08-01T18:06:31.943Z,22.36
2022-08-01T18:11:39.735Z,22.21
2022-08-01T18:16:46.941Z,22.12
2022-08-01T18:21:54.130Z,22.14
2022-08-01T18:27:02.554Z,22.04
2022-08-01T18:32:10.460Z,21.98
2022-08-01T18:37:18.970Z,21.94
2022-08-01T18:42:34.455Z,21.84
2022-08-01T18:47:42.330Z,21.71
2022-08-01T18:52:51.451Z,21.56
2022-08-01T18:57:58.650Z,21.4
2022-08-01T19:03:06.029Z,21.23
2022-08-01T19:08:12.572Z,21.04
2022-08-01T19:13:20.345Z,20.8
2022-08-01T19:18:28.538Z,20.44
2022-08-01T19:23:35.897Z,20.07
2022-08-01T19:28:43.828Z,19.88
2022-08-01T19:33:50.276Z,20.03
2022-08-01T19:39:03.685Z,19.98
2022-08-01T19:44:10.482Z,20.04
2022-08-01T19:49:18.252Z,20.26
2022-08-01T19:54:26.329Z,20.51
2022-08-01T19:59:33.988Z,20.84
2022-08-01T20:04:41.841Z,21.86
2022-08-01T20:09:48.388Z,20.07
2022-08-01T20:14:55.574Z,18.7
2022-08-01T20:20:03.695Z,18.29
2022-08-01T20:25:11.679Z,18.15
2022-08-01T20:30:19.516Z,18.06
2022-08-01T20:35:28.079Z,18.12
2022-08-01T20:40:35.418Z,18.1
2022-08-01T20:45:43.903Z,18.1
2022-08-01T20:50:52.331Z,18.1
2022-08-01T20:56:00.959Z,18.15
2022-08-01T21:01:09.120Z,18.15
2022-08-01T21:06:16.871Z,18.06
2022-08-01T21:11:26.161Z,17.98
2022-08-01T21:16:35.915Z,17.9
2022-08-01T21:21:43.277Z,17.84
2022-08-01T21:26:51.223Z,17.8
2022-08-01T21:31:58.905Z,17.76
2022-08-01T21:37:07.495Z,17.82
2022-08-01T21:42:14.911Z,17.96
2022-08-01T21:47:23.361Z,17.9
2022-08-01T21:52:30.295Z,17.86
2022-08-01T21:57:38.122Z,17.84
2022-08-01T22:02:45.362Z,17.76
2022-08-01T22:07:53.567Z,17.73
2022-08-01T22:13:00.579Z,17.71
2022-08-01T22:18:08.642Z,17.57
2022-08-01T22:23:16.236Z,17.4
2022-08-01T22:28:23.946Z,17.2
2022-08-01T22:34:08.908Z,17.01
2022-08-01T22:39:16.063Z,16.76
2022-08-01T22:44:23.901Z,16.52
2022-08-01T22:49:31.736Z,16.35
2022-08-01T22:54:40.729Z,16.2
2022-08-01T22:59:48.809Z,16.09
2022-08-01T23:04:57.342Z,16.08
2022-08-01T23:10:05.105Z,16.15
2022-08-01T23:15:12.390Z,16.23
2022-08-01T23:20:20.060Z,16.33
2022-08-01T23:25:27.568Z,16.42
2022-08-01T23:30:35.953Z,16.51
2022-08-01T23:35:43.606Z,16.56
2022-08-01T23:40:50.856Z,16.62
2022-08-01T23:45:58.925Z,16.67
2022-08-01T23:51:07.066Z,16.65
2022-08-01T23:56:15.450Z,16.52
